Weather Conditions for:
Torrance, Zamperini Field Airport, CA (KTOA)

Elev: 102 ft; Latitude: 33.80; Longitude: -118.33333

Time Temp. Wind Direction Wind Speed (mph)
(PDT) (f)
19 Sep 9:50 am PDT 75 CALM
19 Sep 8:50 am PDT 72 CALM
19 Sep 7:50 am PDT 70 NW 7
19 Sep 6:55 am PDT 70 CALM
18 Sep 7:47 pm PDT 72 W 12
18 Sep 6:49 pm PDT 73 W 14
18 Sep 5:55 pm PDT 75 WNW 12
18 Sep 4:47 pm PDT 77 WNW 12
18 Sep 3:47 pm PDT 79 W 20
18 Sep 2:50 pm PDT 81 W 15
18 Sep 1:55 pm PDT 81 WNW 12
18 Sep 12:55 pm PDT 81 WNW 12
18 Sep 10:50 am PDT 77 WNW 12
18 Sep 9:47 am PDT 75 WNW 12
18 Sep 8:50 am PDT 73 W 12
18 Sep 7:47 am PDT 70 W 8
18 Sep 6:49 am PDT 70 WNW 12
17 Sep 7:47 pm PDT 79 W 17G23
17 Sep 6:47 pm PDT 79 W 17G23
17 Sep 5:47 pm PDT 84 W 23
17 Sep 4:47 pm PDT 88 W 23
17 Sep 3:50 pm PDT 86 W 20
17 Sep 2:50 pm PDT 86 WNW 12
17 Sep 1:53 pm PDT 86 WNW 16
17 Sep 12:47 pm PDT 88 WNW 17
17 Sep 11:50 am PDT 86 WNW 14
17 Sep 10:47 am PDT 86 WNW 12
17 Sep 9:55 am PDT 88 WNW 10
17 Sep 8:55 am PDT 88 CALM
17 Sep 7:47 am PDT 79 CALM
17 Sep 6:47 am PDT 75 CALM
16 Sep 7:50 pm PDT 86 NW 10
16 Sep 5:56 pm PDT 91 W 9
16 Sep 4:50 pm PDT 91 WNW 12
16 Sep 3:47 pm PDT 91 W 14
16 Sep 1:47 pm PDT 90 WNW 17
16 Sep 12:47 pm PDT 90 WNW 12
16 Sep 11:47 am PDT 88 NW 14
16 Sep 10:47 am PDT 95 CALM
16 Sep 9:47 am PDT 88 NNW 6
16 Sep 8:47 am PDT 81 NW 6
16 Sep 7:50 am PDT 79 WNW 6
16 Sep 6:55 am PDT 77 CALM
15 Sep 7:47 pm PDT 90 W 12
15 Sep 6:47 pm PDT 90 W 18
15 Sep 5:47 pm PDT 91 W 18
15 Sep 4:47 pm PDT 93 W 18
15 Sep 3:47 pm PDT 90 W 18
15 Sep 1:47 pm PDT 86 WNW 20
15 Sep 12:47 pm PDT 86 WNW 20
15 Sep 11:47 am PDT 84 WNW 17
15 Sep 10:47 am PDT 86 NW 12
15 Sep 9:47 am PDT 84 NW 9
15 Sep 8:47 am PDT 81 VRBL 7
15 Sep 7:47 am PDT 77 VRBL 6
15 Sep 6:50 am PDT 73 VRBL 6
14 Sep 7:47 pm PDT 86 WNW 12
14 Sep 6:53 pm PDT 90 W 17
14 Sep 5:47 pm PDT 91 WNW 17G23
14 Sep 4:47 pm PDT 88 WNW 17
14 Sep 3:50 pm PDT 88 WNW 18
14 Sep 2:47 pm PDT 88 WNW 23G30
14 Sep 1:47 pm PDT 88 WNW 18
14 Sep 12:47 pm PDT 88 WNW 17
14 Sep 11:47 am PDT 88 NW 12
14 Sep 10:47 am PDT 88 WNW 12
14 Sep 8:50 am PDT 81 NW 6
14 Sep 7:55 am PDT 77 NW 6
14 Sep 6:50 am PDT 72 CALM
13 Sep 7:47 pm PDT 84 WNW 17
13 Sep 6:47 pm PDT 84 WNW 14
13 Sep 5:47 pm PDT 90 WNW 14
13 Sep 4:47 pm PDT 84 WNW 17
13 Sep 3:47 pm PDT 84 WNW 17
13 Sep 2:47 pm PDT 81 WNW 18G24
13 Sep 11:47 am PDT 84 WNW 15
13 Sep 10:47 am PDT 81 NW 15
13 Sep 9:47 am PDT 81 WNW 9
13 Sep 8:50 am PDT 79 CALM
13 Sep 7:55 am PDT 75 CALM
13 Sep 6:47 am PDT 68 SSW 6
12 Sep 7:47 pm PDT 77 WNW 12G17
12 Sep 6:47 pm PDT 77 WNW 12
12 Sep 4:47 pm PDT 81 NW 14
12 Sep 2:55 pm PDT 81 WNW 17
12 Sep 1:52 pm PDT 82 WNW 17
12 Sep 12:50 pm PDT 82 WNW 15
12 Sep 11:47 am PDT 84 NW 12
12 Sep 10:55 am PDT 82 WNW 12

http://www.wrh.noaa.gov/mesowest/getobext.php?wfo=lox&sid=KTOA&num=168&raw=0&dbn=m